Runcorn, United Kingdom
Current Conditions -  °F | °C
As of 11:50 AM on Tuesday 21 Oct 2014 (Local Time) from EGGP Reporting Station
Rain Showers Rain Showers  
Wind Chill: 54°   Ceiling: Unl
Heat Index: 54°   Visibility: 6mi
Dew Point: 41°   Wind: 29mph
Humidity: 62%   Direction: 290°WNW
Pressure: 29.62"   Gusts: 41mph
Location:  53.34°N, 2.73°W
Report Text: EGGP 211050Z 29025G36KT 9999 SHRA FEW033 SCT043 12/05 Q1003
Loading
Personal Weather Stations






























Interactive Weather Map
Tropical Storm Tracking
New forecast layout! Learn more

10-Day Weather Forecast

Advertisements
Track Severe Weather on mobile